Time;durP1;ratioP1;P1;durP2;ratioP2;P2;SDS_P1;SDS_P2;PMS_P1;PMS_P2;Temp;Humidity;BMP_temperature;BMP_pressure;BME280_temperature;BME280_humidity;BME280_pressure;Samples;Min_cycle;Max_cycle;Signal;HPM_P1;HPM_P2
2021/12/31 00:02:17;;;;;;;20.45;15.20;;;0.90;74.70;;;;;;5074479;28;20048;-54
2021/12/31 00:04:42;;;;;;;22.05;15.80;;;0.90;75.10;;;;;;5074555;28;20071;-55
2021/12/31 00:07:09;;;;;;;20.67;15.70;;;0.90;75.20;;;;;;5074322;28;20040;-57
2021/12/31 00:09:36;;;;;;;22.77;16.05;;;0.80;75.40;;;;;;5074129;28;20082;-57
2021/12/31 00:12:03;;;;;;;25.15;15.63;;;0.90;75.20;;;;;;5083222;28;20066;-57
2021/12/31 00:14:30;;;;;;;22.63;15.93;;;0.80;75.20;;;;;;5084360;28;20099;-53
2021/12/31 00:16:55;;;;;;;21.85;16.15;;;0.80;75.20;;;;;;5090361;28;20078;-56
2021/12/31 00:19:22;;;;;;;25.35;16.63;;;0.80;75.40;;;;;;5079847;28;20029;-55
2021/12/31 00:21:49;;;;;;;23.30;16.85;;;0.80;75.40;;;;;;5074191;28;20027;-57
2021/12/31 00:24:15;;;;;;;24.95;17.30;;;0.80;75.50;;;;;;5074092;28;20056;-55
2021/12/31 00:26:40;;;;;;;25.60;17.33;;;0.80;75.70;;;;;;5074228;28;20094;-56
2021/12/31 00:29:06;;;;;;;23.08;17.02;;;0.80;75.50;;;;;;5080529;28;20107;-55
2021/12/31 00:31:32;;;;;;;22.13;16.33;;;0.80;75.40;;;;;;5075607;28;20103;-53
2021/12/31 00:33:57;;;;;;;23.20;16.58;;;0.80;75.60;;;;;;5074008;28;20025;-56
2021/12/31 00:36:40;;;;;;;23.92;17.08;;;0.80;75.70;;;;;;5073891;28;20067;-55
2021/12/31 00:39:06;;;;;;;21.52;16.77;;;0.80;75.80;;;;;;5082113;28;20064;-54
2021/12/31 00:41:32;;;;;;;23.27;16.20;;;0.80;75.90;;;;;;5093335;28;20410;-56
2021/12/31 00:43:58;;;;;;;21.38;16.10;;;0.80;75.90;;;;;;5092516;28;20024;-54
2021/12/31 00:46:23;;;;;;;28.50;17.25;;;0.80;75.70;;;;;;5077907;28;20035;-57
2021/12/31 00:48:49;;;;;;;27.60;18.35;;;0.80;75.40;;;;;;5080677;28;20083;-54
2021/12/31 00:51:14;;;;;;;23.70;16.77;;;0.80;75.20;;;;;;5093295;28;20556;-54
2021/12/31 00:53:40;;;;;;;24.95;16.70;;;0.80;75.20;;;;;;5093801;28;20020;-54
2021/12/31 00:56:06;;;;;;;23.48;16.63;;;0.80;74.80;;;;;;5081812;28;20024;-55
2021/12/31 00:58:31;;;;;;;25.33;17.50;;;0.80;75.60;;;;;;5073301;28;20034;-56
2021/12/31 01:00:57;;;;;;;21.30;16.33;;;0.80;75.20;;;;;;5075570;28;20078;-57
2021/12/31 01:03:22;;;;;;;24.48;16.52;;;0.80;75.30;;;;;;5083566;28;20495;-56
2021/12/31 01:05:48;;;;;;;22.40;16.77;;;0.80;75.50;;;;;;5073624;28;20495;-58
2021/12/31 01:08:14;;;;;;;24.77;17.48;;;0.80;75.60;;;;;;5073163;28;20434;-54
2021/12/31 01:10:39;;;;;;;27.38;17.13;;;0.80;75.90;;;;;;5084195;28;20031;-53
2021/12/31 01:13:10;;;;;;;25.65;17.60;;;0.80;75.90;;;;;;5075496;28;20032;-56
2021/12/31 01:15:45;;;;;;;25.52;16.05;;;0.80;76.10;;;;;;5073089;28;20060;-57
2021/12/31 01:20:37;;;;;;;25.42;16.98;;;0.80;75.60;;;;;;5088269;28;20376;-54
2021/12/31 01:23:04;;;;;;;22.17;16.70;;;0.70;75.50;;;;;;5093104;28;20484;-57
2021/12/31 01:25:30;;;;;;;22.52;17.63;;;0.80;75.40;;;;;;5087276;28;20028;-57
2021/12/31 01:27:56;;;;;;;24.77;18.33;;;0.70;75.10;;;;;;5092993;28;20086;-53
2021/12/31 01:30:22;;;;;;;25.55;18.20;;;0.70;75.20;;;;;;5093296;28;20028;-56
2021/12/31 01:32:49;;;;;;;23.80;17.67;;;0.80;75.50;;;;;;5093113;28;20101;-54
2021/12/31 01:35:15;;;;;;;27.83;17.50;;;0.70;75.40;;;;;;5088938;28;20032;-53
2021/12/31 01:37:41;;;;;;;26.35;18.17;;;0.70;75.40;;;;;;5088305;28;20020;-53
2021/12/31 01:40:08;;;;;;;23.50;17.45;;;0.70;75.60;;;;;;5093034;28;20028;-53
2021/12/31 01:42:36;;;;;;;25.50;17.00;;;0.70;75.60;;;;;;5079547;28;20020;-57
2021/12/31 01:45:13;;;;;;;24.45;17.77;;;0.70;75.70;;;;;;5072943;28;20430;-58
2021/12/31 01:50:20;;;;;;;27.13;18.85;;;0.70;75.30;;;;;;5083079;28;20035;-55
2021/12/31 01:52:45;;;;;;;26.23;18.35;;;0.70;75.70;;;;;;5073405;28;20045;-57
2021/12/31 01:55:13;;;;;;;26.77;18.00;;;0.70;75.60;;;;;;5086562;28;20063;-57
2021/12/31 01:57:41;;;;;;;23.10;17.60;;;0.70;75.60;;;;;;5072986;28;20027;-54
2021/12/31 02:00:07;;;;;;;28.60;18.73;;;0.70;76.20;;;;;;5072718;28;20012;-56
2021/12/31 02:02:33;;;;;;;25.00;17.65;;;0.70;75.50;;;;;;5072940;28;20051;-54
2021/12/31 02:05:01;;;;;;;24.42;18.88;;;0.70;75.50;;;;;;5072587;28;20029;-55
2021/12/31 02:07:26;;;;;;;26.73;18.50;;;0.70;75.60;;;;;;5077786;28;20040;-57
2021/12/31 02:09:54;;;;;;;24.95;17.98;;;0.70;75.70;;;;;;5076242;28;20068;-56
2021/12/31 02:12:24;;;;;;;23.65;17.67;;;0.60;75.60;;;;;;5084499;28;20465;-56
2021/12/31 02:14:51;;;;;;;26.73;18.33;;;0.60;75.30;;;;;;5072833;28;20063;-58
2021/12/31 02:17:17;;;;;;;28.77;18.45;;;0.60;75.10;;;;;;5072587;28;20483;-56
2021/12/31 02:20:05;;;;;;;25.85;18.60;;;0.60;75.20;;;;;;5072606;28;20021;-54
2021/12/31 02:22:33;;;;;;;31.85;19.92;;;0.60;74.60;;;;;;5072231;28;20028;-55
2021/12/31 02:25:00;;;;;;;27.20;17.90;;;0.60;74.80;;;;;;5084335;28;20032;-55
2021/12/31 02:27:27;;;;;;;27.70;18.52;;;0.60;74.60;;;;;;5084336;28;20036;-54
2021/12/31 02:29:53;;;;;;;31.67;20.38;;;0.60;73.90;;;;;;5092941;28;20472;-55
2021/12/31 02:32:19;;;;;;;32.22;21.50;;;0.50;73.90;;;;;;5092436;28;20028;-54
2021/12/31 02:34:46;;;;;;;26.20;17.63;;;0.50;74.00;;;;;;5092878;28;20049;-56
2021/12/31 02:37:12;;;;;;;28.38;18.98;;;0.50;73.70;;;;;;5092514;28;20097;-55
2021/12/31 02:39:39;;;;;;;29.27;20.90;;;0.50;73.60;;;;;;5092223;28;20456;-53
2021/12/31 02:42:08;;;;;;;27.85;18.52;;;0.40;73.40;;;;;;5084441;28;20357;-56
2021/12/31 02:44:35;;;;;;;29.08;19.00;;;0.40;73.70;;;;;;5083163;28;20111;-54
2021/12/31 02:47:04;;;;;;;29.48;20.20;;;0.40;73.60;;;;;;5078294;28;20032;-56
2021/12/31 02:49:34;;;;;;;32.05;21.75;;;0.50;73.90;;;;;;5075949;28;20392;-56
2021/12/31 02:52:02;;;;;;;32.85;20.98;;;0.50;74.70;;;;;;5076209;28;20033;-54
2021/12/31 02:54:29;;;;;;;31.30;21.00;;;0.50;74.00;;;;;;5076104;28;20373;-57
2021/12/31 02:56:55;;;;;;;29.92;21.83;;;0.50;74.10;;;;;;5093985;28;20055;-56
2021/12/31 02:59:21;;;;;;;33.10;21.08;;;0.50;74.50;;;;;;5083716;28;20392;-58
2021/12/31 03:01:49;;;;;;;34.35;22.38;;;0.50;74.70;;;;;;5086421;28;20020;-57
2021/12/31 03:04:16;;;;;;;32.45;20.98;;;0.50;74.80;;;;;;5095961;28;20024;-55
2021/12/31 03:06:43;;;;;;;31.30;22.33;;;0.60;74.70;;;;;;5095907;28;20031;-57
2021/12/31 03:09:11;;;;;;;28.75;19.35;;;0.50;74.70;;;;;;5095495;28;20384;-58
2021/12/31 03:11:38;;;;;;;34.13;23.50;;;0.60;74.60;;;;;;5075817;28;20025;-58
2021/12/31 03:14:06;;;;;;;35.22;23.83;;;0.60;74.50;;;;;;5089797;28;20108;-57
2021/12/31 03:16:33;;;;;;;28.17;19.73;;;0.60;74.20;;;;;;5075259;28;20028;-54
2021/12/31 03:18:58;;;;;;;30.20;20.08;;;0.60;73.80;;;;;;5081016;28;20035;-54
2021/12/31 03:21:24;;;;;;;28.65;19.25;;;0.60;73.30;;;;;;5094820;28;20016;-56
2021/12/31 03:23:52;;;;;;;30.80;21.13;;;0.50;72.90;;;;;;5091809;28;20079;-56
2021/12/31 03:26:19;;;;;;;30.52;19.73;;;0.50;72.70;;;;;;5075481;28;20032;-55
2021/12/31 03:28:44;;;;;;;28.13;18.77;;;0.40;72.70;;;;;;5079004;28;20464;-54
2021/12/31 03:31:10;;;;;;;28.77;20.15;;;0.40;72.90;;;;;;5087596;28;20085;-54
2021/12/31 03:33:36;;;;;;;34.58;22.13;;;0.30;72.60;;;;;;5075199;28;20021;-55
2021/12/31 03:36:02;;;;;;;33.83;21.05;;;0.30;73.40;;;;;;5080744;28;20444;-56
2021/12/31 03:38:27;;;;;;;33.63;21.88;;;0.30;73.50;;;;;;5095307;28;20024;-55
2021/12/31 03:40:53;;;;;;;28.02;19.40;;;0.30;73.40;;;;;;5092191;28;20080;-54
2021/12/31 03:43:19;;;;;;;32.63;20.67;;;0.30;73.20;;;;;;5095366;28;20040;-55
2021/12/31 03:45:46;;;;;;;31.13;21.33;;;0.20;72.80;;;;;;5093904;28;20510;-57
2021/12/31 03:48:12;;;;;;;34.72;23.65;;;0.20;73.70;;;;;;5076091;28;20032;-57
2021/12/31 03:50:38;;;;;;;35.05;23.52;;;0.20;74.00;;;;;;5074831;28;20473;-56
2021/12/31 03:53:04;;;;;;;32.40;22.23;;;0.30;74.30;;;;;;5083789;28;20111;-54
2021/12/31 03:55:30;;;;;;;36.17;23.02;;;0.30;74.00;;;;;;5094695;28;20035;-55
2021/12/31 03:57:55;;;;;;;35.33;22.33;;;0.30;73.70;;;;;;5080906;28;20025;-55
2021/12/31 04:00:21;;;;;;;42.08;23.95;;;0.30;73.60;;;;;;5074657;28;20154;-53
2021/12/31 04:02:47;;;;;;;40.15;25.00;;;0.30;73.40;;;;;;5080145;28;20024;-55
2021/12/31 04:05:12;;;;;;;38.10;23.85;;;0.20;73.40;;;;;;5081641;28;20423;-56
2021/12/31 04:07:38;;;;;;;39.45;23.80;;;0.20;73.40;;;;;;5074408;28;20392;-55
2021/12/31 04:10:04;;;;;;;42.22;24.40;;;0.20;73.40;;;;;;5092301;28;20028;-57
2021/12/31 04:12:30;;;;;;;37.58;24.13;;;0.20;73.20;;;;;;5080322;28;20476;-58
2021/12/31 04:14:56;;;;;;;34.90;23.15;;;0.20;73.50;;;;;;5087970;28;20082;-57
2021/12/31 04:17:21;;;;;;;37.33;23.25;;;0.20;74.10;;;;;;5076507;28;20472;-54
2021/12/31 04:19:52;;;;;;;37.38;23.20;;;0.20;74.50;;;;;;5077534;28;20511;-53
2021/12/31 04:22:20;;;;;;;31.52;20.55;;;0.20;74.70;;;;;;5074375;28;20020;-55
2021/12/31 04:27:11;;;;;;;35.03;21.77;;;0.20;74.10;;;;;;5090652;28;20035;-55
2021/12/31 04:29:38;;;;;;;35.80;22.65;;;0.20;73.80;;;;;;5094729;28;20024;-57
2021/12/31 04:32:05;;;;;;;36.85;23.23;;;0.20;73.60;;;;;;5094269;28;20047;-54
2021/12/31 04:34:31;;;;;;;39.00;24.17;;;0.20;73.90;;;;;;5093037;28;20434;-57
2021/12/31 04:36:56;;;;;;;36.47;22.35;;;0.20;74.00;;;;;;5077611;28;20020;-57
2021/12/31 04:39:22;;;;;;;35.42;22.95;;;0.20;73.90;;;;;;5076870;28;20032;-54
2021/12/31 04:41:48;;;;;;;32.58;20.20;;;0.20;73.80;;;;;;5093579;28;20049;-53
2021/12/31 04:44:14;;;;;;;32.38;21.35;;;0.30;73.60;;;;;;5088296;28;20103;-54
2021/12/31 04:46:40;;;;;;;34.72;23.05;;;0.30;73.40;;;;;;5094081;28;20044;-57
2021/12/31 04:49:09;;;;;;;37.33;23.88;;;0.30;73.40;;;;;;5085710;28;20058;-54
2021/12/31 04:51:35;;;;;;;38.03;23.52;;;0.30;73.40;;;;;;5092158;28;20376;-55
2021/12/31 04:54:01;;;;;;;38.63;23.80;;;0.30;73.80;;;;;;5073631;28;20040;-53
2021/12/31 04:56:27;;;;;;;41.28;23.35;;;0.30;73.90;;;;;;5088947;28;20032;-54
2021/12/31 04:58:53;;;;;;;41.10;25.58;;;0.30;73.60;;;;;;5092857;28;20032;-55
2021/12/31 05:01:21;;;;;;;41.80;26.70;;;0.30;73.80;;;;;;5075402;28;20024;-56
2021/12/31 05:03:48;;;;;;;34.22;23.35;;;0.40;73.80;;;;;;5093349;28;20028;-54
2021/12/31 05:06:15;;;;;;;35.67;22.58;;;0.40;73.80;;;;;;5093598;28;20085;-58
2021/12/31 05:08:41;;;;;;;34.40;22.45;;;0.40;73.60;;;;;;5086910;28;20500;-56
2021/12/31 05:11:06;;;;;;;36.90;22.95;;;0.40;73.70;;;;;;5085760;28;20063;-56
2021/12/31 05:13:32;;;;;;;35.10;23.55;;;0.40;73.70;;;;;;5074705;28;20384;-58
2021/12/31 05:16:02;;;;;;;33.92;21.85;;;0.50;73.60;;;;;;5084961;28;20028;-57
2021/12/31 05:18:28;;;;;;;35.90;22.60;;;0.50;73.60;;;;;;5079076;28;20035;-56
2021/12/31 05:20:54;;;;;;;34.15;22.52;;;0.50;73.60;;;;;;5093800;28;20524;-57
2021/12/31 05:23:19;;;;;;;39.53;24.98;;;0.50;73.90;;;;;;5089435;28;20483;-53
2021/12/31 05:25:45;;;;;;;35.58;22.15;;;0.50;74.10;;;;;;5082015;28;20028;-54
2021/12/31 05:28:11;;;;;;;31.10;19.45;;;0.60;74.00;;;;;;5072966;28;20476;-57
2021/12/31 05:30:37;;;;;;;38.25;22.48;;;0.60;73.70;;;;;;5073076;28;20036;-57
2021/12/31 05:33:03;;;;;;;37.22;23.63;;;0.60;73.40;;;;;;5074891;28;20021;-56
2021/12/31 05:35:29;;;;;;;37.05;24.60;;;0.60;73.40;;;;;;5082925;28;20031;-56
2021/12/31 05:37:55;;;;;;;38.13;22.42;;;0.60;73.60;;;;;;5075058;28;20107;-57
2021/12/31 05:40:21;;;;;;;38.47;24.52;;;0.60;73.60;;;;;;5085253;28;20443;-56
2021/12/31 05:42:46;;;;;;;36.00;22.80;;;0.60;73.50;;;;;;5079505;28;20028;-56
2021/12/31 05:45:12;;;;;;;33.78;21.42;;;0.60;73.60;;;;;;5090228;28;20085;-57
2021/12/31 05:47:38;;;;;;;30.60;19.52;;;0.70;73.70;;;;;;5092296;28;20032;-54
2021/12/31 05:50:07;;;;;;;34.50;22.08;;;0.70;73.30;;;;;;5090842;28;20361;-53
2021/12/31 05:52:34;;;;;;;36.30;22.27;;;0.60;73.30;;;;;;5079342;28;20032;-57
2021/12/31 05:54:59;;;;;;;37.15;23.38;;;0.60;73.10;;;;;;5085730;28;20035;-54
2021/12/31 05:57:25;;;;;;;33.95;21.25;;;0.60;73.50;;;;;;5091483;28;20024;-57
2021/12/31 05:59:51;;;;;;;38.50;23.42;;;0.60;73.70;;;;;;5074436;28;20024;-53
2021/12/31 06:02:17;;;;;;;37.65;24.38;;;0.60;73.70;;;;;;5072747;28;20456;-55
2021/12/31 06:04:42;;;;;;;37.28;23.85;;;0.60;74.20;;;;;;5072606;28;20047;-54
2021/12/31 06:07:08;;;;;;;37.25;23.52;;;0.60;74.00;;;;;;5075150;28;20484;-53
2021/12/31 06:09:34;;;;;;;34.78;23.20;;;0.60;73.80;;;;;;5082455;28;20024;-55
2021/12/31 06:12:00;;;;;;;35.20;23.00;;;0.60;73.80;;;;;;5092848;28;20062;-55
2021/12/31 06:14:26;;;;;;;40.05;24.92;;;0.60;73.80;;;;;;5079416;28;20048;-57
2021/12/31 06:16:52;;;;;;;41.58;27.48;;;0.70;73.80;;;;;;5076363;28;20419;-56
2021/12/31 06:19:17;;;;;;;47.33;29.50;;;0.70;74.00;;;;;;5076728;28;20154;-56
2021/12/31 06:21:45;;;;;;;39.80;27.45;;;0.70;73.90;;;;;;5076473;28;20468;-53
2021/12/31 06:24:12;;;;;;;40.85;27.25;;;0.70;74.00;;;;;;5079532;28;20048;-56
2021/12/31 06:26:38;;;;;;;41.47;26.08;;;0.80;74.20;;;;;;5083175;28;20077;-55
2021/12/31 06:29:04;;;;;;;37.80;24.70;;;0.80;74.00;;;;;;5091599;28;20472;-54
2021/12/31 06:31:30;;;;;;;46.38;27.63;;;0.80;74.00;;;;;;5080070;28;20396;-56
2021/12/31 06:33:56;;;;;;;39.00;23.40;;;0.80;73.70;;;;;;5076338;28;20085;-54
2021/12/31 06:36:22;;;;;;;37.85;24.40;;;0.80;73.80;;;;;;5080773;28;20028;-54
2021/12/31 06:38:50;;;;;;;39.05;26.73;;;0.80;73.70;;;;;;5078886;28;20520;-56
2021/12/31 06:41:16;;;;;;;35.20;22.65;;;0.80;73.80;;;;;;5094003;28;20074;-53
2021/12/31 06:43:42;;;;;;;33.20;20.98;;;0.80;73.80;;;;;;5095784;28;20020;-56
2021/12/31 06:46:08;;;;;;;36.83;21.92;;;0.80;73.80;;;;;;5087191;28;20410;-55
2021/12/31 06:48:34;;;;;;;33.55;21.63;;;0.80;73.70;;;;;;5075996;28;20032;-58
2021/12/31 06:50:59;;;;;;;31.48;20.02;;;0.80;73.70;;;;;;5075908;28;20487;-55
2021/12/31 06:53:25;;;;;;;31.15;20.08;;;0.80;73.80;;;;;;5075859;28;20032;-57
2021/12/31 06:55:50;;;;;;;35.05;21.45;;;0.70;73.60;;;;;;5075700;28;20025;-57
2021/12/31 06:58:16;;;;;;;34.17;21.10;;;0.70;73.70;;;;;;5079912;28;20023;-56
2021/12/31 07:00:42;;;;;;;32.30;19.05;;;0.70;73.80;;;;;;5089526;28;20028;-56
2021/12/31 07:03:12;;;;;;;32.95;20.92;;;0.60;73.80;;;;;;5095887;28;20084;-53
2021/12/31 07:05:42;;;;;;;28.55;18.63;;;0.60;73.90;;;;;;5090438;28;20028;-57
2021/12/31 07:08:08;;;;;;;30.38;20.63;;;0.60;74.10;;;;;;5075670;28;20032;-56
2021/12/31 07:10:34;;;;;;;31.08;19.58;;;0.60;74.40;;;;;;5081343;28;20581;-55
2021/12/31 07:13:05;;;;;;;27.70;17.65;;;0.60;74.50;;;;;;5093696;28;20523;-55
2021/12/31 07:15:31;;;;;;;34.03;19.73;;;0.60;74.50;;;;;;5091017;28;20043;-56
2021/12/31 07:17:57;;;;;;;25.30;17.48;;;0.60;74.60;;;;;;5076183;28;20021;-57
2021/12/31 07:20:22;;;;;;;28.25;17.42;;;0.60;74.50;;;;;;5075815;28;20473;-56
2021/12/31 07:22:48;;;;;;;28.27;18.52;;;0.60;74.60;;;;;;5080295;28;20052;-57
2021/12/31 07:25:14;;;;;;;33.35;21.05;;;0.60;74.70;;;;;;5077470;28;20032;-55
2021/12/31 07:27:40;;;;;;;31.40;20.10;;;0.70;74.90;;;;;;5074905;28;20023;-55
2021/12/31 07:30:06;;;;;;;31.80;19.77;;;0.70;75.40;;;;;;5084133;28;20472;-56
2021/12/31 07:32:38;;;;;;;35.10;21.15;;;0.80;76.30;;;;;;5090177;28;20112;-58
2021/12/31 07:35:05;;;;;;;31.88;19.52;;;0.90;76.80;;;;;;5080700;28;20104;-56
2021/12/31 07:37:31;;;;;;;34.08;20.73;;;1.00;76.70;;;;;;5089517;28;20056;-55
2021/12/31 07:40:02;;;;;;;37.17;22.92;;;1.00;76.60;;;;;;5075431;28;20473;-56
2021/12/31 07:42:28;;;;;;;32.25;21.17;;;1.10;76.50;;;;;;5074787;28;20384;-57
2021/12/31 07:44:54;;;;;;;35.58;22.52;;;1.20;76.40;;;;;;5081833;28;20021;-56
2021/12/31 07:47:19;;;;;;;36.65;24.05;;;1.30;76.10;;;;;;5076357;28;20028;-56
2021/12/31 07:49:45;;;;;;;38.20;23.98;;;1.40;75.70;;;;;;5075459;28;20571;-57
2021/12/31 07:52:11;;;;;;;38.05;24.70;;;1.40;75.50;;;;;;5079121;28;20057;-57
2021/12/31 07:54:36;;;;;;;40.65;25.88;;;1.50;75.20;;;;;;5087050;28;20103;-56
2021/12/31 07:57:02;;;;;;;37.55;25.88;;;1.60;75.20;;;;;;5076928;28;20063;-57
2021/12/31 07:59:28;;;;;;;43.83;26.77;;;1.60;75.00;;;;;;5091546;28;20489;-55
2021/12/31 08:01:53;;;;;;;39.30;25.00;;;1.70;75.50;;;;;;5089663;28;20032;-54
2021/12/31 08:04:19;;;;;;;41.17;27.02;;;1.80;75.60;;;;;;5085127;28;20020;-56
2021/12/31 08:06:44;;;;;;;42.20;26.63;;;1.80;76.00;;;;;;5087426;28;20032;-56
2021/12/31 08:09:10;;;;;;;37.92;25.33;;;1.90;76.30;;;;;;5082051;28;20426;-58
2021/12/31 08:11:37;;;;;;;37.85;23.23;;;1.90;76.30;;;;;;5083664;28;20028;-55
2021/12/31 08:14:03;;;;;;;33.92;22.92;;;1.90;75.80;;;;;;5090026;28;20043;-57
2021/12/31 08:16:29;;;;;;;37.25;24.50;;;1.90;75.20;;;;;;5081300;28;20111;-58
2021/12/31 08:18:55;;;;;;;35.70;23.95;;;2.00;75.70;;;;;;5074343;28;20440;-58
2021/12/31 08:21:21;;;;;;;39.47;25.10;;;2.00;76.00;;;;;;5074520;28;20561;-57
2021/12/31 08:23:47;;;;;;;37.92;24.95;;;2.00;75.90;;;;;;5079700;28;20048;-57
2021/12/31 08:26:12;;;;;;;40.55;25.23;;;2.00;75.70;;;;;;5092855;28;20039;-58
2021/12/31 08:28:38;;;;;;;41.50;26.83;;;2.00;75.90;;;;;;5093074;28;20040;-54
2021/12/31 08:31:04;;;;;;;42.22;27.15;;;2.00;76.10;;;;;;5077327;28;20070;-56
2021/12/31 08:33:29;;;;;;;38.63;24.25;;;2.10;76.30;;;;;;5073710;28;20085;-55
2021/12/31 08:35:55;;;;;;;41.83;26.42;;;2.10;76.30;;;;;;5086621;28;20029;-57
2021/12/31 08:38:22;;;;;;;37.63;22.90;;;2.10;76.20;;;;;;5074258;28;20031;-57
2021/12/31 08:40:47;;;;;;;36.63;24.52;;;2.10;75.30;;;;;;5061353;28;20674;-56
2021/12/31 08:43:13;;;;;;;40.78;25.75;;;2.10;75.10;;;;;;5086722;28;20039;-56
2021/12/31 08:45:39;;;;;;;50.75;29.77;;;2.00;75.80;;;;;;5081043;28;20024;-58
2021/12/31 08:48:05;;;;;;;46.17;29.90;;;2.00;75.20;;;;;;5081968;28;20031;-58
2021/12/31 08:50:32;;;;;;;50.05;27.45;;;2.10;75.40;;;;;;5074193;28;20055;-55
2021/12/31 08:52:57;;;;;;;45.25;27.55;;;2.10;75.50;;;;;;5075587;28;20538;-58
2021/12/31 08:55:23;;;;;;;43.15;28.80;;;2.10;75.50;;;;;;5080683;28;20032;-58
2021/12/31 08:57:49;;;;;;;46.20;30.95;;;2.10;75.70;;;;;;5090338;28;20039;-56
2021/12/31 09:00:15;;;;;;;48.33;30.48;;;2.20;76.10;;;;;;5089938;28;20585;-57
2021/12/31 09:02:42;;;;;;;41.97;27.92;;;2.20;76.00;;;;;;5092418;28;20047;-57
2021/12/31 09:05:09;;;;;;;40.10;25.85;;;2.30;75.80;;;;;;5074502;28;20029;-55
2021/12/31 09:07:35;;;;;;;46.65;28.58;;;2.30;75.80;;;;;;5073310;28;20056;-54
2021/12/31 09:10:02;;;;;;;37.80;23.92;;;2.40;75.70;;;;;;5083772;28;20032;-56
2021/12/31 09:12:28;;;;;;;40.65;26.45;;;2.40;75.60;;;;;;5073240;28;20433;-54
2021/12/31 09:14:53;;;;;;;42.05;26.67;;;2.50;76.20;;;;;;5078667;28;20108;-58
2021/12/31 09:17:21;;;;;;;41.22;24.50;;;2.50;76.30;;;;;;5083575;28;20357;-58
2021/12/31 09:19:47;;;;;;;38.08;22.63;;;2.50;75.90;;;;;;5089032;28;20412;-56
2021/12/31 09:22:12;;;;;;;42.17;26.15;;;2.60;75.60;;;;;;5073224;28;20017;-58
2021/12/31 09:24:38;;;;;;;39.30;22.52;;;2.50;75.50;;;;;;5072871;28;20073;-57
2021/12/31 09:27:04;;;;;;;37.97;24.17;;;2.50;75.60;;;;;;5072962;28;20165;-57
2021/12/31 09:29:29;;;;;;;42.15;25.38;;;2.60;75.30;;;;;;5079868;28;20107;-58
2021/12/31 09:31:55;;;;;;;37.28;23.55;;;2.60;75.70;;;;;;5083706;28;20067;-54
2021/12/31 09:34:20;;;;;;;37.50;23.20;;;2.60;76.00;;;;;;5086663;28;20085;-58
2021/12/31 09:36:46;;;;;;;31.05;19.55;;;2.60;75.90;;;;;;5072911;28;20058;-55
2021/12/31 09:39:12;;;;;;;34.70;19.98;;;2.60;75.80;;;;;;5087137;28;20161;-56
2021/12/31 09:41:37;;;;;;;35.00;22.55;;;2.70;75.50;;;;;;5090409;28;20024;-54
2021/12/31 09:44:03;;;;;;;40.42;25.08;;;2.70;75.50;;;;;;5092942;28;20105;-54
2021/12/31 09:46:29;;;;;;;36.15;23.67;;;2.70;75.90;;;;;;5089288;28;20109;-55
2021/12/31 09:48:55;;;;;;;39.58;24.95;;;2.70;76.20;;;;;;5079347;28;20028;-54
2021/12/31 09:51:22;;;;;;;35.65;20.77;;;2.80;76.40;;;;;;5091637;28;20085;-55
2021/12/31 09:53:49;;;;;;;39.13;24.75;;;2.80;76.00;;;;;;5079224;28;20037;-57
2021/12/31 09:56:14;;;;;;;38.47;23.95;;;2.80;75.70;;;;;;5072668;28;20059;-54
2021/12/31 09:58:40;;;;;;;39.30;23.33;;;2.80;75.70;;;;;;5072692;28;20048;-58
2021/12/31 10:01:08;;;;;;;39.97;23.23;;;2.80;75.60;;;;;;5072527;28;20021;-57
2021/12/31 10:03:35;;;;;;;41.63;25.73;;;2.80;75.70;;;;;;5072905;28;20024;-58
2021/12/31 10:06:08;;;;;;;41.85;26.15;;;2.80;75.90;;;;;;5078418;28;20115;-55
2021/12/31 10:08:45;;;;;;;43.83;26.52;;;2.80;76.00;;;;;;5081199;28;20107;-58
2021/12/31 10:11:24;;;;;;;41.60;25.80;;;2.80;75.90;;;;;;5074881;28;20044;-56
2021/12/31 10:13:58;;;;;;;46.22;28.80;;;2.80;76.00;;;;;;5072518;28;20024;-54
2021/12/31 10:16:29;;;;;;;40.05;26.42;;;2.80;76.30;;;;;;5088264;28;20024;-57
2021/12/31 10:19:12;;;;;;;43.90;26.48;;;2.90;76.80;;;;;;5092853;28;20588;-55
2021/12/31 10:21:42;;;;;;;45.25;26.90;;;2.90;77.00;;;;;;5092586;28;20034;-58
2021/12/31 10:24:25;;;;;;;41.20;24.77;;;3.00;77.30;;;;;;5085286;28;20048;-57
2021/12/31 10:27:02;;;;;;;41.00;26.02;;;3.00;77.50;;;;;;5086209;28;20060;-54
2021/12/31 10:29:28;;;;;;;48.22;27.88;;;3.10;77.60;;;;;;5072353;28;20040;-58
2021/12/31 10:31:54;;;;;;;39.03;24.70;;;3.10;77.60;;;;;;5080462;28;20029;-57
2021/12/31 10:34:37;;;;;;;38.88;23.10;;;3.10;77.40;;;;;;5089212;28;20032;-57
2021/12/31 10:37:25;;;;;;;44.22;25.83;;;3.20;77.10;;;;;;5089365;28;20426;-58
2021/12/31 10:40:01;;;;;;;39.83;24.05;;;3.20;77.20;;;;;;5080292;28;20388;-56
2021/12/31 10:42:37;;;;;;;33.55;23.95;;;3.20;77.30;;;;;;5075695;28;20461;-58
2021/12/31 10:45:04;;;;;;;36.38;22.77;;;3.30;77.60;;;;;;5077321;28;20024;-57
2021/12/31 10:47:49;;;;;;;36.70;23.48;;;3.40;77.70;;;;;;5090035;28;20035;-57
2021/12/31 10:50:17;;;;;;;32.95;22.88;;;3.40;77.50;;;;;;5072285;28;20036;-58
2021/12/31 10:53:11;;;;;;;36.45;23.02;;;3.50;77.70;;;;;;5073335;28;20103;-56
2021/12/31 10:55:44;;;;;;;35.15;22.83;;;3.50;77.80;;;;;;5072470;28;20098;-56
2021/12/31 10:58:12;;;;;;;34.38;21.33;;;3.60;77.60;;;;;;5081764;28;20376;-55
2021/12/31 11:00:43;;;;;;;38.33;23.05;;;3.60;77.70;;;;;;5092183;28;20574;-57
2021/12/31 11:03:10;;;;;;;35.63;22.15;;;3.60;78.10;;;;;;5083066;28;20067;-57
2021/12/31 11:05:36;;;;;;;36.45;23.75;;;3.60;77.70;;;;;;5088286;28;20261;-57
2021/12/31 11:08:05;;;;;;;34.35;22.77;;;3.60;77.70;;;;;;5090035;28;20056;-55
2021/12/31 11:10:36;;;;;;;34.10;21.17;;;3.70;77.80;;;;;;5085169;28;20032;-57
2021/12/31 11:13:22;;;;;;;35.58;21.98;;;3.70;77.80;;;;;;5077819;28;20039;-57
2021/12/31 11:15:50;;;;;;;34.28;21.65;;;3.60;77.70;;;;;;5083907;28;20043;-58
2021/12/31 11:18:18;;;;;;;32.50;21.23;;;3.60;77.80;;;;;;5085736;28;20042;-57
2021/12/31 11:20:46;;;;;;;34.33;22.27;;;3.60;77.90;;;;;;5085008;28;20016;-56
2021/12/31 11:23:11;;;;;;;31.20;19.90;;;3.60;77.90;;;;;;5085713;28;20550;-54
2021/12/31 11:26:04;;;;;;;32.25;21.20;;;3.60;78.00;;;;;;5093145;28;20028;-57
2021/12/31 11:28:31;;;;;;;34.58;21.50;;;3.60;78.00;;;;;;5094686;28;20226;-56
2021/12/31 11:31:16;;;;;;;35.30;22.20;;;3.60;78.10;;;;;;5086211;28;20070;-57
2021/12/31 11:33:43;;;;;;;39.38;21.83;;;3.60;78.10;;;;;;5082347;28;20024;-54
2021/12/31 11:36:11;;;;;;;34.88;23.23;;;3.60;78.30;;;;;;5087364;28;20044;-56
2021/12/31 11:38:41;;;;;;;38.72;23.42;;;3.60;78.30;;;;;;5095372;28;20031;-58
2021/12/31 11:41:08;;;;;;;35.60;21.63;;;3.60;78.20;;;;;;5095302;28;20282;-58
2021/12/31 11:43:38;;;;;;;37.10;20.98;;;3.60;78.40;;;;;;5094350;28;20027;-56
2021/12/31 11:46:10;;;;;;;31.08;18.88;;;3.70;78.30;;;;;;5094005;28;20059;-55
2021/12/31 11:48:51;;;;;;;38.10;22.70;;;3.70;78.20;;;;;;5074132;28;20111;-54
2021/12/31 11:51:34;;;;;;;34.42;21.77;;;3.70;78.00;;;;;;5082684;28;20040;-54
2021/12/31 11:54:00;;;;;;;31.75;20.73;;;3.70;77.70;;;;;;5079799;28;20112;-54
2021/12/31 11:56:52;;;;;;;34.47;21.45;;;3.70;77.70;;;;;;5080070;28;20112;-55
2021/12/31 11:59:19;;;;;;;36.88;22.15;;;3.70;77.40;;;;;;5071948;28;20256;-55
2021/12/31 12:02:15;;;;;;;33.80;22.48;;;3.70;77.50;;;;;;5088352;28;20020;-57
2021/12/31 12:04:43;;;;;;;34.13;22.60;;;3.70;77.70;;;;;;5079557;28;20031;-55
2021/12/31 12:07:17;;;;;;;35.30;20.42;;;3.70;77.70;;;;;;5084594;28;20547;-55
2021/12/31 12:09:42;;;;;;;36.40;22.60;;;3.70;77.50;;;;;;5087362;28;20122;-56
2021/12/31 12:12:17;;;;;;;37.47;22.85;;;3.70;77.40;;;;;;5094526;28;20110;-54
2021/12/31 12:14:46;;;;;;;35.35;22.08;;;3.70;77.40;;;;;;5094315;28;20107;-55
2021/12/31 12:17:17;;;;;;;35.15;21.75;;;3.70;77.60;;;;;;5094808;28;20375;-55
2021/12/31 12:19:45;;;;;;;39.88;23.42;;;3.70;77.60;;;;;;5093276;28;20024;-55
2021/12/31 12:22:35;;;;;;;38.03;23.33;;;3.70;77.40;;;;;;5081619;28;20371;-54
2021/12/31 12:25:18;;;;;;;36.97;22.40;;;3.70;77.50;;;;;;5094867;28;20116;-54
2021/12/31 12:27:47;;;;;;;37.20;23.10;;;3.70;77.70;;;;;;5094488;28;20021;-55
2021/12/31 12:30:15;;;;;;;35.00;21.80;;;3.80;77.90;;;;;;5094627;28;20024;-53
2021/12/31 12:35:28;;;;;;;35.70;23.70;;;3.80;78.30;;;;;;5074247;28;20046;-56
2021/12/31 12:38:05;;;;;;;36.75;23.88;;;3.80;78.10;;;;;;5079961;28;20058;-57
2021/12/31 12:40:59;;;;;;;40.03;24.45;;;3.80;78.20;;;;;;5089124;28;20484;-53
2021/12/31 12:43:38;;;;;;;39.35;23.55;;;3.70;78.10;;;;;;5094471;28;20042;-57
2021/12/31 12:46:13;;;;;;;41.33;25.00;;;3.80;77.70;;;;;;5094405;28;20024;-56
2021/12/31 12:48:49;;;;;;;38.80;22.88;;;3.70;77.80;;;;;;5089059;28;20021;-53
2021/12/31 12:51:24;;;;;;;38.60;24.52;;;3.70;77.70;;;;;;5076481;28;20502;-53